createdAt,value
2022-12-08T00:01:34.423Z,98475.63
2022-12-08T00:04:03.883Z,98475.34
2022-12-08T00:06:32.182Z,98464.31
2022-12-08T00:09:00.105Z,98476.66
2022-12-08T00:11:26.726Z,98467.53
2022-12-08T00:13:53.274Z,98458.88
2022-12-08T00:16:19.979Z,98458.59
2022-12-08T00:18:46.689Z,98460.47
2022-12-08T00:21:13.196Z,98456.47
2022-12-08T00:23:39.734Z,98454.91
2022-12-08T00:26:08.207Z,98451.41
2022-12-08T00:28:35.123Z,98448.22
2022-12-08T00:31:08.014Z,98443.94
2022-12-08T00:33:34.597Z,98457.13
2022-12-08T00:36:05.907Z,98446.09
2022-12-08T00:38:32.487Z,98436.44
2022-12-08T00:40:59.084Z,98442.09
2022-12-08T00:43:26.966Z,98436.25
2022-12-08T00:45:53.673Z,98431.97
2022-12-08T00:48:20.269Z,98433.84
2022-12-08T00:50:46.968Z,98432.81
2022-12-08T00:53:13.529Z,98422.38
2022-12-08T00:55:40.082Z,98433.69
2022-12-08T00:58:06.607Z,98431.22
2022-12-08T01:00:34.454Z,98425.56
2022-12-08T01:03:01.160Z,98425.84
2022-12-08T01:05:27.720Z,98425.56
2022-12-08T01:07:54.499Z,98431.44
2022-12-08T01:10:21.223Z,98431.44
2022-12-08T01:12:47.716Z,98421.22
2022-12-08T01:15:14.224Z,98425.78
2022-12-08T01:17:42.083Z,98421.00
2022-12-08T01:20:09.232Z,98424.56
2022-12-08T01:22:35.733Z,98426.97
2022-12-08T01:25:02.462Z,98424.47
2022-12-08T01:27:29.028Z,98431.69
2022-12-08T01:29:55.532Z,98429.47
2022-12-08T01:32:22.231Z,98432.75
2022-12-08T01:34:50.088Z,98427.41
2022-12-08T01:37:16.752Z,98438.13
2022-12-08T01:39:43.309Z,98431.69
2022-12-08T01:42:19.536Z,98424.63
2022-12-08T01:44:58.324Z,98430.50
2022-12-08T01:47:29.852Z,98426.22
2022-12-08T01:49:57.965Z,98431.88
2022-12-08T01:52:29.486Z,98428.91
2022-12-08T01:55:00.454Z,98427.53
2022-12-08T01:57:30.820Z,98423.53
2022-12-08T02:00:02.851Z,98421.16
2022-12-08T02:02:34.312Z,98418.97
2022-12-08T02:05:03.065Z,98423.25
2022-12-08T02:07:31.076Z,98420.81
2022-12-08T02:09:58.282Z,98413.03
2022-12-08T02:12:25.075Z,98411.94
2022-12-08T02:14:51.625Z,98410.63
2022-12-08T02:17:35.473Z,98399.09
2022-12-08T02:20:29.445Z,98405.84
2022-12-08T02:23:04.440Z,98400.75
2022-12-08T02:25:40.475Z,98397.28
2022-12-08T02:28:29.406Z,98405.03
2022-12-08T02:31:07.781Z,98400.47
2022-12-08T02:34:02.029Z,98394.59
2022-12-08T02:36:35.629Z,98393.31
2022-12-08T02:39:11.442Z,98397.06
2022-12-08T02:41:46.098Z,98386.91
2022-12-08T02:44:21.457Z,98385.59
2022-12-08T02:46:53.966Z,98388.88
2022-12-08T02:49:21.896Z,98385.44
2022-12-08T02:51:48.544Z,98384.97
2022-12-08T02:54:15.518Z,98378.28
2022-12-08T02:57:05.334Z,98382.84
2022-12-08T02:59:49.299Z,98375.06
2022-12-08T03:02:32.621Z,98372.13
2022-12-08T03:05:07.309Z,98367.84
2022-12-08T03:07:38.759Z,98365.88
2022-12-08T03:10:10.870Z,98359.41
2022-12-08T03:12:43.647Z,98351.38
2022-12-08T03:15:14.723Z,98349.47
2022-12-08T03:17:50.439Z,98360.97
2022-12-08T03:20:22.235Z,98349.13
2022-12-08T03:22:50.517Z,98342.59
2022-12-08T03:25:21.842Z,98340.72
2022-12-08T03:27:48.973Z,98334.53
2022-12-08T03:30:15.625Z,98333.97
2022-12-08T03:32:46.309Z,98332.06
2022-12-08T03:35:16.352Z,98336.66
2022-12-08T03:37:44.380Z,98331.19
2022-12-08T03:40:15.407Z,98334.69
2022-12-08T03:42:42.053Z,98329.03
2022-12-08T03:45:09.208Z,98330.13
2022-12-08T03:47:35.792Z,98330.41
2022-12-08T03:50:02.645Z,98321.53
2022-12-08T03:52:29.425Z,98315.38
2022-12-08T03:54:57.377Z,98319.16
2022-12-08T03:57:23.890Z,98318.34
2022-12-08T03:59:50.553Z,98314.38
2022-12-08T04:02:17.109Z,98313.28
2022-12-08T04:04:44.204Z,98306.81
2022-12-08T04:07:10.933Z,98305.22
2022-12-08T04:09:37.430Z,98301.78
2022-12-08T04:12:05.961Z,98297.41
2022-12-08T04:14:32.455Z,98301.69
2022-12-08T04:16:59.014Z,98295.00
2022-12-08T04:19:26.012Z,98289.63
2022-12-08T04:21:52.598Z,98288.84
2022-12-08T04:24:19.173Z,98287.97
2022-12-08T04:26:45.642Z,98287.06
2022-12-08T04:29:13.560Z,98279.03
2022-12-08T04:31:40.217Z,98278.44
2022-12-08T04:34:06.986Z,98273.06
2022-12-08T04:36:33.533Z,98268.78
2022-12-08T04:39:00.372Z,98267.91
2022-12-08T04:41:26.869Z,98272.50
2022-12-08T04:43:53.362Z,98266.03
2022-12-08T04:46:21.453Z,98274.84
2022-12-08T04:48:48.029Z,98274.38
2022-12-08T04:51:16.738Z,98272.97
2022-12-08T04:53:46.725Z,98275.38
2022-12-08T04:56:14.819Z,98272.97
2022-12-08T04:58:41.353Z,98274.28
2022-12-08T05:01:07.957Z,98270.28
2022-12-08T05:03:36.091Z,98263.84
2022-12-08T05:06:03.735Z,98260.34
2022-12-08T05:08:30.460Z,98260.66
2022-12-08T05:11:02.657Z,98254.50
2022-12-08T05:13:29.845Z,98253.69
2022-12-08T05:16:03.056Z,98256.38
2022-12-08T05:18:29.943Z,98256.56
2022-12-08T05:20:57.853Z,98259.56
2022-12-08T05:23:24.417Z,98256.28
2022-12-08T05:25:50.913Z,98243.16
2022-12-08T05:28:40.722Z,98244.25
2022-12-08T05:31:04.272Z,98245.03
2022-12-08T05:33:30.928Z,98254.41
2022-12-08T05:35:58.781Z,98249.81
2022-12-08T05:38:25.362Z,98243.88
2022-12-08T05:40:51.912Z,98244.34
2022-12-08T05:43:18.423Z,98254.28
2022-12-08T05:45:45.053Z,98242.56
2022-12-08T05:48:11.638Z,98243.38
2022-12-08T05:50:38.206Z,98244.69
2022-12-08T05:53:06.284Z,98242.28
2022-12-08T05:55:32.816Z,98239.09
2022-12-08T05:58:04.562Z,98242.34
2022-12-08T06:00:34.138Z,98229.53
2022-12-08T06:03:01.378Z,98234.13
2022-12-08T06:05:28.006Z,98233.50
2022-12-08T06:07:54.587Z,98220.88
2022-12-08T06:10:22.614Z,98225.44
2022-12-08T06:12:49.166Z,98221.97
2022-12-08T06:15:15.709Z,98221.16
2022-12-08T06:17:42.255Z,98219.00
2022-12-08T06:20:09.076Z,98220.09
2022-12-08T06:22:35.886Z,98221.09
2022-12-08T06:25:06.027Z,98227.44
2022-12-08T06:27:36.605Z,98228.56
2022-12-08T06:30:04.340Z,98211.94
2022-12-08T06:32:31.280Z,98214.94
2022-12-08T06:34:58.193Z,98217.91
2022-12-08T06:37:24.689Z,98221.31
2022-12-08T06:39:51.354Z,98214.03
2022-12-08T06:42:18.012Z,98214.25
2022-12-08T06:44:46.056Z,98232.22
2022-12-08T06:47:12.618Z,98232.16
2022-12-08T06:49:39.240Z,98217.31
2022-12-08T06:52:05.820Z,98219.72
2022-12-08T06:54:32.395Z,98224.09
2022-12-08T06:56:59.008Z,98227.88
2022-12-08T06:59:25.626Z,98223.50
2022-12-08T07:01:53.792Z,98224.91
2022-12-08T07:04:20.355Z,98224.91
2022-12-08T07:06:47.073Z,98225.88
2022-12-08T07:09:13.601Z,98224.00
2022-12-08T07:11:40.134Z,98221.09
2022-12-08T07:14:06.829Z,98224.56
2022-12-08T07:16:33.433Z,98221.59
2022-12-08T07:19:01.518Z,98222.91
2022-12-08T07:21:28.076Z,98229.38
2022-12-08T07:23:57.955Z,98221.03
2022-12-08T07:26:25.492Z,98217.25
2022-12-08T07:28:52.205Z,98228.97
2022-12-08T07:31:20.535Z,98224.91
2022-12-08T07:33:47.565Z,98225.19
2022-12-08T07:36:15.841Z,98226.50
2022-12-08T07:38:42.443Z,98230.28
2022-12-08T07:41:12.679Z,98231.66
2022-12-08T07:43:39.210Z,98225.69
2022-12-08T07:46:05.856Z,98222.22
2022-12-08T07:48:32.475Z,98226.00
2022-12-08T07:51:02.475Z,98222.50
2022-12-08T07:53:30.918Z,98219.03
2022-12-08T07:55:57.866Z,98220.63
2022-12-08T07:58:24.543Z,98215.75
2022-12-08T08:00:51.277Z,98217.84
2022-12-08T08:03:18.186Z,98211.34
2022-12-08T08:05:44.762Z,98211.06
2022-12-08T08:08:11.384Z,98200.81
2022-12-08T08:10:39.355Z,98204.00
2022-12-08T08:13:05.942Z,98204.81
2022-12-08T08:15:32.599Z,98201.84
2022-12-08T08:17:59.315Z,98201.03
2022-12-08T08:20:26.600Z,98198.81
2022-12-08T08:22:53.113Z,98211.66
2022-12-08T08:25:20.826Z,98213.84
2022-12-08T08:27:48.812Z,98202.31
2022-12-08T08:30:20.432Z,98218.44
2022-12-08T08:32:47.980Z,98217.63
2022-12-08T08:35:14.569Z,98214.94
2022-12-08T08:37:44.359Z,98214.19
2022-12-08T08:40:15.345Z,98216.88
2022-12-08T08:42:41.891Z,98221.44
2022-12-08T08:45:10.869Z,98222.72
2022-12-08T08:47:37.426Z,98220.03
2022-12-08T08:50:04.996Z,98221.63
2022-12-08T08:52:31.823Z,98216.25
2022-12-08T08:54:58.326Z,98209.69
2022-12-08T08:57:26.032Z,98211.59
2022-12-08T08:59:52.758Z,98216.03
2022-12-08T09:02:21.666Z,98216.72
2022-12-08T09:04:48.446Z,98209.16
2022-12-08T09:07:15.355Z,98206.19
2022-12-08T09:09:41.964Z,98209.25
2022-12-08T09:12:08.610Z,98203.88
2022-12-08T09:14:35.762Z,98203.59
2022-12-08T09:17:02.485Z,98207.28
2022-12-08T09:19:30.344Z,98211.56
2022-12-08T09:21:57.152Z,98200.81
2022-12-08T09:24:23.674Z,98205.56
2022-12-08T09:26:50.208Z,98207.44
2022-12-08T09:29:16.800Z,98215.50
2022-12-08T09:31:43.822Z,98206.84
2022-12-08T09:34:10.890Z,98206.56
2022-12-08T09:36:39.307Z,98201.19
2022-12-08T09:39:06.143Z,98203.56
2022-12-08T09:41:39.157Z,98208.63
2022-12-08T09:44:41.502Z,98202.94
2022-12-08T09:47:16.409Z,98198.38
2022-12-08T09:49:47.296Z,98196.19
2022-12-08T09:52:21.345Z,98192.19
2022-12-08T09:54:48.034Z,98197.19
2022-12-08T09:57:18.990Z,98196.84
2022-12-08T09:59:50.168Z,98191.31
2022-12-08T10:02:22.283Z,98190.81
2022-12-08T10:04:48.990Z,98178.47
2022-12-08T10:07:24.105Z,98182.16
2022-12-08T10:09:58.829Z,98186.72
2022-12-08T10:12:31.058Z,98184.50
2022-12-08T10:15:07.950Z,98177.25
2022-12-08T10:17:38.763Z,98177.88
2022-12-08T10:20:12.732Z,98174.88
2022-12-08T10:22:44.777Z,98171.94
2022-12-08T10:25:16.900Z,98171.84
2022-12-08T10:27:43.913Z,98166.94
2022-12-08T10:30:12.439Z,98173.41
2022-12-08T10:32:39.559Z,98162.03
2022-12-08T10:35:08.570Z,98173.91
2022-12-08T10:37:35.527Z,98169.34
2022-12-08T10:40:11.169Z,98171.69
2022-12-08T10:42:40.658Z,98171.69
2022-12-08T10:45:23.168Z,98162.84
2022-12-08T10:47:59.998Z,98163.47
2022-12-08T10:50:32.926Z,98170.59
2022-12-08T10:53:02.245Z,98157.94
2022-12-08T10:55:40.865Z,98163.63
2022-12-08T10:58:23.889Z,98160.28
2022-12-08T11:00:53.357Z,98155.19
2022-12-08T11:03:24.874Z,98155.69
2022-12-08T11:05:56.381Z,98148.59
2022-12-08T11:08:23.360Z,98151.78
2022-12-08T11:10:51.630Z,98149.09
2022-12-08T11:13:22.326Z,98143.09
2022-12-08T11:15:50.516Z,98142.00
2022-12-08T11:18:27.486Z,98145.06
2022-12-08T11:21:00.361Z,98142.06
2022-12-08T11:23:29.037Z,98137.19
2022-12-08T11:26:04.931Z,98135.28
2022-12-08T11:28:31.502Z,98134.97
2022-12-08T11:31:05.006Z,98133.84
2022-12-08T11:33:31.681Z,98138.03
2022-12-08T11:36:02.116Z,98141.31
2022-12-08T11:38:29.837Z,98134.06
2022-12-08T11:41:03.293Z,98133.44
2022-12-08T11:43:39.486Z,98132.75
2022-12-08T11:46:14.413Z,98130.06
2022-12-08T11:48:46.106Z,98130.06
2022-12-08T11:51:16.370Z,98133.25
2022-12-08T11:53:47.418Z,98131.06
2022-12-08T11:56:21.667Z,98124.09
2022-12-08T11:58:53.202Z,98129.28
2022-12-08T12:01:22.606Z,98127.22
2022-12-08T12:03:58.664Z,98121.84
2022-12-08T12:06:58.584Z,98123.41
2022-12-08T12:09:38.295Z,98121.34
2022-12-08T12:12:17.308Z,98120.41
2022-12-08T12:15:02.661Z,98114.13
2022-12-08T12:17:41.726Z,98118.75
2022-12-08T12:20:15.650Z,98120.66
2022-12-08T12:22:44.913Z,98114.66
2022-12-08T12:25:18.998Z,98116.84
2022-12-08T12:27:47.870Z,98110.88
2022-12-08T12:30:21.361Z,98113.38
2022-12-08T12:32:53.522Z,98112.75
2022-12-08T12:35:27.697Z,98118.63
2022-12-08T12:37:58.425Z,98107.38
2022-12-08T12:40:28.874Z,98114.97
2022-12-08T12:43:24.655Z,98108.19
2022-12-08T12:46:29.821Z,98117.50
2022-12-08T12:49:35.490Z,98109.75
2022-12-08T12:52:02.470Z,98110.53
2022-12-08T12:54:29.181Z,98112.13
2022-12-08T12:56:56.825Z,98099.91
2022-12-08T12:59:42.338Z,98108.19
2022-12-08T13:02:19.347Z,98102.91
2022-12-08T13:04:56.120Z,98110.69
2022-12-08T13:07:25.026Z,98114.66
2022-12-08T13:09:58.536Z,98099.31
2022-12-08T13:12:25.644Z,98111.97
2022-12-08T13:14:59.296Z,98105.00
2022-12-08T13:17:28.300Z,98102.91
2022-12-08T13:19:57.755Z,98104.31
2022-12-08T13:22:46.602Z,98082.63
2022-12-08T13:25:56.040Z,98094.34
2022-12-08T13:28:28.182Z,98083.47
2022-12-08T13:30:57.790Z,98086.94
2022-12-08T13:33:30.548Z,98087.09
2022-12-08T13:36:07.819Z,98081.31
2022-12-08T13:38:37.158Z,98082.09
2022-12-08T13:41:13.152Z,98078.91
2022-12-08T13:43:57.799Z,98092.03
2022-12-08T13:56:37.235Z,98084.97
2022-12-08T13:58:04.120Z,98090.94
2022-12-08T14:00:30.780Z,98084.16
2022-12-08T14:03:01.049Z,98091.75
2022-12-08T14:06:10.439Z,98096.78
2022-12-08T14:08:59.031Z,98097.88
2022-12-08T14:11:25.950Z,98091.41
2022-12-08T14:13:52.618Z,98097.38
2022-12-08T14:16:28.302Z,98097.38
2022-12-08T14:19:05.040Z,98097.19
2022-12-08T14:21:35.963Z,98092.09
2022-12-08T14:24:03.370Z,98094.78
2022-12-08T14:26:33.237Z,98100.50
2022-12-08T14:28:59.985Z,98090.66
2022-12-08T14:31:27.805Z,98087.97
2022-12-08T14:33:56.650Z,98095.06
2022-12-08T14:36:23.558Z,98101.34
2022-12-08T14:38:54.450Z,98099.25
2022-12-08T14:41:26.504Z,98107.94
2022-12-08T14:43:59.703Z,98108.75
2022-12-08T14:46:26.675Z,98107.47
2022-12-08T14:48:53.474Z,98103.97
2022-12-08T14:51:26.609Z,98097.59
2022-12-08T14:53:56.565Z,98108.06
2022-12-08T14:56:25.783Z,98109.28
2022-12-08T14:59:04.704Z,98110.06
2022-12-08T15:01:32.097Z,98109.28
2022-12-08T15:04:01.946Z,98112.56
2022-12-08T15:06:30.009Z,98120.94
2022-12-08T15:08:58.317Z,98122.06
2022-12-08T15:11:31.699Z,98116.97
2022-12-08T15:13:58.371Z,98121.06
2022-12-08T15:16:28.508Z,98116.28
2022-12-08T15:19:16.705Z,98121.47
2022-12-08T15:21:45.965Z,98115.59
2022-12-08T15:24:13.965Z,98116.69
2022-12-08T15:26:45.333Z,98123.00
2022-12-08T15:29:16.854Z,98123.09
2022-12-08T15:31:43.402Z,98122.28
2022-12-08T15:34:10.156Z,98113.72
2022-12-08T15:36:36.656Z,98128.16
2022-12-08T15:39:05.433Z,98127.16
2022-12-08T15:41:32.071Z,98132.06
2022-12-08T15:43:58.759Z,98132.66
2022-12-08T15:46:25.390Z,98136.94
2022-12-08T15:48:57.815Z,98139.13
2022-12-08T15:51:24.872Z,98136.44
2022-12-08T15:53:51.997Z,98139.72
2022-12-08T15:56:27.399Z,98143.81
2022-12-08T15:58:56.142Z,98136.56
2022-12-08T16:01:24.377Z,98132.78
2022-12-08T16:07:19.778Z,98138.75
2022-12-08T16:09:31.713Z,98133.47
2022-12-08T16:12:09.292Z,98138.66
2022-12-08T16:17:24.140Z,98143.03
2022-12-08T16:19:50.865Z,98143.81
2022-12-08T16:25:18.362Z,98133.69
2022-12-08T16:30:36.533Z,98145.81
2022-12-08T16:33:03.180Z,98136.97
2022-12-08T16:35:30.566Z,98136.16
2022-12-08T16:37:57.151Z,98142.63
2022-12-08T16:40:23.837Z,98143.13
2022-12-08T16:42:51.861Z,98143.44
2022-12-08T16:45:20.565Z,98144.34
2022-12-08T16:47:48.911Z,98152.06
2022-12-08T16:50:17.366Z,98145.72
2022-12-08T16:52:44.572Z,98141.22
2022-12-08T16:55:12.782Z,98142.16
2022-12-08T16:57:39.553Z,98143.53
2022-12-08T17:00:11.112Z,98135.47
2022-12-08T17:02:37.704Z,98139.25
2022-12-08T17:05:05.616Z,98137.66
2022-12-08T17:07:33.832Z,98140.63
2022-12-08T17:10:02.989Z,98143.63
2022-12-08T17:12:29.641Z,98133.69
2022-12-08T17:14:56.231Z,98134.78
2022-12-08T17:17:24.118Z,98139.16
2022-12-08T17:19:50.776Z,98135.47
2022-12-08T17:22:17.285Z,98137.94
2022-12-08T17:24:43.813Z,98136.34
2022-12-08T17:27:10.546Z,98128.59
2022-12-08T17:29:37.088Z,98140.13
2022-12-08T17:32:03.993Z,98136.94
2022-12-08T17:34:32.153Z,98131.28
2022-12-08T17:36:58.660Z,98131.56
2022-12-08T17:39:25.669Z,98128.41
2022-12-08T17:41:52.243Z,98132.19
2022-12-08T17:44:20.151Z,98138.94
2022-12-08T17:46:52.411Z,98141.63
2022-12-08T17:49:22.335Z,98137.63
2022-12-08T17:51:55.485Z,98143.00
2022-12-08T17:54:22.963Z,98136.03
2022-12-08T17:56:52.926Z,98139.84
2022-12-08T17:59:19.915Z,98143.00
2022-12-08T18:01:46.701Z,98142.19
2022-12-08T18:04:13.551Z,98147.88
2022-12-08T18:06:46.692Z,98145.69
2022-12-08T18:09:15.566Z,98134.47
2022-12-08T18:11:42.628Z,98139.31
2022-12-08T18:14:10.875Z,98132.66
2022-12-08T18:16:39.724Z,98144.19
2022-12-08T18:19:07.711Z,98144.19
2022-12-08T18:21:35.102Z,98138.53
2022-12-08T18:24:03.755Z,98135.06
2022-12-08T18:26:32.080Z,98142.59
2022-12-08T18:28:58.930Z,98145.56
2022-12-08T18:31:26.286Z,98135.91
2022-12-08T18:33:53.738Z,98130.56
2022-12-08T18:36:22.965Z,98136.72
2022-12-08T18:38:49.732Z,98130.06
2022-12-08T18:41:18.126Z,98134.13
2022-12-08T18:43:47.021Z,98134.94
2022-12-08T18:46:14.860Z,98142.47
2022-12-08T18:48:43.120Z,98140.09
2022-12-08T18:51:10.497Z,98146.81
2022-12-08T18:53:37.752Z,98145.53
2022-12-08T18:56:05.051Z,98143.97
2022-12-08T18:58:32.009Z,98144.25
2022-12-08T19:01:00.547Z,98148.00
2022-12-08T19:03:27.521Z,98146.13
2022-12-08T19:06:02.009Z,98148.13
2022-12-08T19:08:31.485Z,98137.97
2022-12-08T19:10:58.827Z,98140.94
2022-12-08T19:13:26.231Z,98135.84
2022-12-08T19:15:53.272Z,98135.84
2022-12-08T19:18:21.711Z,98132.69
2022-12-08T19:20:48.700Z,98138.84
2022-12-08T19:23:18.841Z,98146.59
2022-12-08T19:25:45.390Z,98145.00
2022-12-08T19:28:11.946Z,98146.09
2022-12-08T19:30:38.801Z,98151.94
2022-12-08T19:33:05.666Z,98152.25
2022-12-08T19:35:39.981Z,98146.59
2022-12-08T19:38:07.898Z,98148.47
2022-12-08T19:40:34.963Z,98157.13
2022-12-08T19:43:01.898Z,98152.56
2022-12-08T19:45:28.631Z,98149.06
2022-12-08T19:47:55.415Z,98152.56
2022-12-08T19:50:22.309Z,98155.81
2022-12-08T19:52:50.372Z,98149.94
2022-12-08T19:55:17.255Z,98152.09
2022-12-08T19:57:47.285Z,98149.75
2022-12-08T20:00:14.764Z,98149.53
2022-12-08T20:02:41.785Z,98147.63
2022-12-08T20:05:12.016Z,98147.41
2022-12-08T20:07:39.065Z,98151.19
2022-12-08T20:10:12.072Z,98157.94
2022-12-08T20:12:38.634Z,98156.84
2022-12-08T20:15:06.518Z,98149.38
2022-12-08T20:17:33.097Z,98154.25
2022-12-08T20:20:03.895Z,98160.69
2022-12-08T20:22:33.628Z,98166.94
2022-12-08T20:25:01.118Z,98166.72
2022-12-08T20:27:29.280Z,98169.19
2022-12-08T20:29:55.867Z,98171.13
2022-12-08T20:32:22.623Z,98165.25
2022-12-08T20:34:49.409Z,98155.66
2022-12-08T20:37:16.328Z,98166.94
2022-12-08T20:39:42.958Z,98161.88
2022-12-08T20:42:12.243Z,98165.44
2022-12-08T20:44:40.200Z,98168.66
2022-12-08T20:47:06.832Z,98166.84
2022-12-08T20:49:34.910Z,98161.28
2022-12-08T20:52:01.947Z,98158.38
2022-12-08T20:54:28.648Z,98156.56
2022-12-08T20:56:55.565Z,98161.13
2022-12-08T20:59:22.222Z,98154.22
2022-12-08T21:01:51.746Z,98153.22
2022-12-08T21:04:18.715Z,98156.75
2022-12-08T21:06:45.546Z,98160.03
2022-12-08T21:09:12.494Z,98147.72
2022-12-08T21:11:39.396Z,98150.16
2022-12-08T21:14:06.530Z,98161.22
2022-12-08T21:16:33.372Z,98161.88
2022-12-08T21:19:01.738Z,98165.38
2022-12-08T21:21:28.559Z,98156.09
2022-12-08T21:23:55.353Z,98159.94
2022-12-08T21:26:23.232Z,98169.38
2022-12-08T21:28:50.075Z,98163.56
2022-12-08T21:31:19.419Z,98174.59
2022-12-08T21:33:46.112Z,98164.00
2022-12-08T21:36:16.183Z,98164.97
2022-12-08T21:38:43.610Z,98167.72
2022-12-08T21:41:13.244Z,98167.25
2022-12-08T21:43:42.097Z,98174.81
2022-12-08T21:46:14.945Z,98171.34
2022-12-08T21:48:41.699Z,98174.56
2022-12-08T21:51:08.680Z,98166.00
2022-12-08T21:53:36.787Z,98173.75
2022-12-08T21:56:08.060Z,98178.03
2022-12-08T21:58:34.725Z,98180.66
2022-12-08T22:01:05.754Z,98177.16
2022-12-08T22:03:32.601Z,98175.06
2022-12-08T22:06:04.179Z,98175.06
2022-12-08T22:08:31.028Z,98181.78
2022-12-08T22:10:59.238Z,98183.41
2022-12-08T22:13:25.920Z,98170.34
2022-12-08T22:15:56.161Z,98170.13
2022-12-08T22:18:23.092Z,98179.50
2022-12-08T22:20:49.761Z,98168.03
2022-12-08T22:23:16.392Z,98176.63
2022-12-08T22:25:43.028Z,98178.25
2022-12-08T22:28:11.150Z,98165.69
2022-12-08T22:30:39.290Z,98169.69
2022-12-08T22:33:06.347Z,98170.00
2022-12-08T22:35:32.908Z,98171.63
2022-12-08T22:37:59.537Z,98167.13
2022-12-08T22:40:26.211Z,98171.66
2022-12-08T22:42:52.774Z,98178.06
2022-12-08T22:45:20.754Z,98169.25
2022-12-08T22:47:47.293Z,98174.34
2022-12-08T22:50:14.027Z,98171.63
2022-12-08T22:52:40.802Z,98173.44
2022-12-08T22:55:08.186Z,98160.25
2022-12-08T22:57:34.796Z,98164.81
2022-12-08T23:00:01.515Z,98165.94
2022-12-08T23:02:29.633Z,98166.47
2022-12-08T23:04:56.446Z,98171.56
2022-12-08T23:07:23.491Z,98168.41
2022-12-08T23:09:50.137Z,98169.75
2022-12-08T23:12:16.835Z,98175.38
2022-12-08T23:14:43.391Z,98167.34
2022-12-08T23:17:10.156Z,98173.22
2022-12-08T23:19:38.424Z,98175.34
2022-12-08T23:22:05.805Z,98167.28
2022-12-08T23:24:32.573Z,98175.50
2022-12-08T23:26:59.306Z,98172.81
2022-12-08T23:29:26.020Z,98172.31
2022-12-08T23:31:52.785Z,98174.69
2022-12-08T23:34:19.927Z,98167.16
2022-12-08T23:36:48.093Z,98165.28
2022-12-08T23:39:14.729Z,98163.41
2022-12-08T23:41:41.423Z,98161.19
2022-12-08T23:44:08.255Z,98159.25
2022-12-08T23:46:35.331Z,98156.09
2022-12-08T23:49:01.948Z,98153.41
2022-12-08T23:51:28.709Z,98154.25
2022-12-08T23:53:56.679Z,98150.25
2022-12-08T23:56:28.598Z,98149.44
2022-12-08T23:58:56.732Z,98155.03
